createdAt,value
2019-03-23T00:01:04.007Z,30.92
2019-03-23T00:04:00.660Z,31.80
2019-03-23T00:06:57.985Z,34.27
2019-03-23T00:09:55.574Z,32.05
2019-03-23T00:12:54.673Z,31.82
2019-03-23T00:15:52.076Z,31.68
2019-03-23T00:18:49.177Z,31.48
2019-03-23T00:21:45.629Z,28.80
2019-03-23T00:24:42.446Z,31.27
2019-03-23T00:27:39.517Z,33.75
2019-03-23T00:30:36.638Z,27.60
2019-03-23T00:33:34.013Z,32.55
2019-03-23T00:36:40.779Z,34.43
2019-03-23T00:39:29.733Z,27.75
2019-03-23T00:42:27.311Z,31.37
2019-03-23T00:45:25.554Z,31.17
2019-03-23T00:48:22.283Z,30.45
2019-03-23T00:51:19.225Z,25.40
2019-03-23T00:54:16.860Z,29.35
2019-03-23T00:57:17.137Z,28.25
2019-03-23T01:00:15.399Z,34.13
2019-03-23T01:03:13.353Z,29.52
2019-03-23T01:06:11.151Z,31.37
2019-03-23T01:09:09.490Z,28.70
2019-03-23T01:12:07.629Z,28.35
2019-03-23T01:15:05.031Z,30.75
2019-03-23T01:18:01.825Z,29.82
2019-03-23T01:20:58.247Z,30.32
2019-03-23T01:23:55.606Z,29.80
2019-03-23T01:26:53.407Z,32.05
2019-03-23T01:29:50.171Z,31.05
2019-03-23T01:32:47.816Z,30.30
2019-03-23T01:35:44.816Z,34.45
2019-03-23T01:38:41.796Z,33.65
2019-03-23T01:41:38.818Z,29.45
2019-03-23T01:44:35.309Z,32.93
2019-03-23T01:47:33.327Z,25.97
2019-03-23T01:50:30.435Z,30.23
2019-03-23T01:53:27.220Z,29.67
2019-03-23T01:56:24.697Z,27.17
2019-03-23T01:59:22.241Z,27.70
2019-03-23T02:02:19.042Z,34.60
2019-03-23T02:05:16.400Z,28.12
2019-03-23T02:08:16.109Z,29.37
2019-03-23T02:11:14.856Z,28.92
2019-03-23T02:14:11.492Z,28.62
2019-03-23T02:17:07.949Z,31.00
2019-03-23T02:20:07.682Z,30.52
2019-03-23T02:23:04.308Z,28.65
2019-03-23T02:26:01.170Z,28.27
2019-03-23T02:28:57.543Z,34.60
2019-03-23T02:31:55.402Z,32.42
2019-03-23T02:34:52.892Z,27.30
2019-03-23T02:37:50.349Z,29.57
2019-03-23T02:40:48.065Z,31.35
2019-03-23T02:43:45.477Z,28.52
2019-03-23T02:46:42.816Z,33.92
2019-03-23T02:49:40.276Z,39.38
2019-03-23T02:52:38.447Z,36.10
2019-03-23T02:55:34.868Z,34.48
2019-03-23T02:58:32.609Z,35.00
2019-03-23T03:01:30.317Z,29.82
2019-03-23T03:04:27.631Z,38.67
2019-03-23T03:07:26.012Z,31.20
2019-03-23T03:10:41.573Z,32.73
2019-03-23T03:13:39.314Z,36.65
2019-03-23T03:16:36.478Z,30.15
2019-03-23T03:19:34.270Z,32.98
2019-03-23T03:22:31.216Z,34.55
2019-03-23T03:25:28.089Z,32.05
2019-03-23T03:28:25.819Z,30.10
2019-03-23T03:31:29.452Z,33.10
2019-03-23T03:34:27.716Z,30.45
2019-03-23T03:37:24.196Z,31.52
2019-03-23T03:40:20.503Z,40.48
2019-03-23T03:43:17.886Z,37.10
2019-03-23T03:46:14.644Z,37.80
2019-03-23T03:49:13.003Z,37.42
2019-03-23T03:52:10.804Z,37.60
2019-03-23T03:55:08.382Z,33.50
2019-03-23T03:58:06.166Z,31.10
2019-03-23T04:01:03.676Z,33.55
2019-03-23T04:04:00.190Z,29.85
2019-03-23T04:06:57.030Z,30.68
2019-03-23T04:09:54.444Z,29.90
2019-03-23T04:12:51.444Z,29.45
2019-03-23T04:15:48.330Z,28.90
2019-03-23T04:18:44.693Z,30.40
2019-03-23T04:21:41.149Z,31.50
2019-03-23T04:24:38.679Z,28.80
2019-03-23T04:27:35.530Z,31.50
2019-03-23T04:30:32.153Z,31.35
2019-03-23T04:33:29.563Z,28.80
2019-03-23T04:36:26.164Z,31.55
2019-03-23T04:39:23.628Z,32.88
2019-03-23T04:42:20.982Z,31.12
2019-03-23T04:45:18.565Z,35.03
2019-03-23T04:48:15.913Z,34.67
2019-03-23T04:51:14.198Z,29.60
2019-03-23T04:54:12.278Z,35.23
2019-03-23T04:57:09.822Z,30.35
2019-03-23T05:00:09.028Z,30.82
2019-03-23T05:03:05.610Z,31.50
2019-03-23T05:06:03.174Z,32.55
2019-03-23T05:08:59.695Z,33.20
2019-03-23T05:11:57.017Z,31.40
2019-03-23T05:14:54.607Z,28.65
2019-03-23T05:17:52.146Z,30.20
2019-03-23T05:20:49.497Z,31.05
2019-03-23T05:23:47.270Z,33.25
2019-03-23T05:26:44.758Z,35.03
2019-03-23T05:29:41.389Z,31.33
2019-03-23T05:32:39.185Z,32.70
2019-03-23T05:35:36.650Z,31.40
2019-03-23T05:38:43.580Z,31.40
2019-03-23T05:41:31.494Z,30.88
2019-03-23T05:44:28.414Z,29.20
2019-03-23T05:47:25.759Z,28.75
2019-03-23T05:50:22.352Z,25.45
2019-03-23T05:53:19.981Z,30.65
2019-03-23T05:56:16.453Z,26.65
2019-03-23T05:59:13.734Z,30.32
2019-03-23T06:02:11.082Z,31.05
2019-03-23T06:05:07.978Z,26.77
2019-03-23T06:08:05.955Z,28.80
2019-03-23T06:11:03.003Z,34.40
2019-03-23T06:13:59.922Z,31.15
2019-03-23T06:16:56.394Z,32.13
2019-03-23T06:19:55.920Z,28.70
2019-03-23T06:22:53.614Z,30.62
2019-03-23T06:25:51.366Z,28.40
2019-03-23T06:28:48.591Z,29.18
2019-03-23T06:31:46.049Z,34.27
2019-03-23T06:34:45.883Z,32.13
2019-03-23T06:37:45.614Z,30.12
2019-03-23T06:40:43.687Z,38.00
2019-03-23T06:43:41.181Z,29.15
2019-03-23T06:46:40.523Z,30.60
2019-03-23T06:49:37.657Z,27.67
2019-03-23T06:52:34.552Z,31.27
2019-03-23T06:55:32.540Z,30.87
2019-03-23T06:58:28.737Z,31.03
2019-03-23T07:01:27.482Z,32.10
2019-03-23T07:04:26.680Z,31.97
2019-03-23T07:07:23.039Z,29.13
2019-03-23T07:10:20.466Z,30.13
2019-03-23T07:13:16.674Z,31.20
2019-03-23T07:16:13.814Z,29.13
2019-03-23T07:19:10.894Z,30.73
2019-03-23T07:22:07.273Z,29.47
2019-03-23T07:25:06.837Z,27.03
2019-03-23T07:28:03.358Z,28.40
2019-03-23T07:31:02.523Z,27.30
2019-03-23T07:33:59.094Z,29.57
2019-03-23T07:36:56.067Z,25.47
2019-03-23T07:39:52.142Z,25.57
2019-03-23T07:42:48.614Z,26.30
2019-03-23T07:45:45.502Z,26.40
2019-03-23T07:48:42.685Z,24.40
2019-03-23T07:51:39.992Z,25.27
2019-03-23T07:54:37.432Z,24.80
2019-03-23T07:57:34.486Z,27.40
2019-03-23T08:00:31.719Z,21.93
2019-03-23T08:03:28.914Z,24.03
2019-03-23T08:06:25.063Z,27.53
2019-03-23T08:09:23.551Z,25.77
2019-03-23T08:12:20.771Z,24.33
2019-03-23T08:15:17.755Z,22.83
2019-03-23T08:18:15.253Z,21.43
2019-03-23T08:21:12.722Z,21.47
2019-03-23T08:24:08.719Z,22.27
2019-03-23T08:27:05.697Z,20.37
2019-03-23T08:30:01.943Z,22.90
2019-03-23T08:33:00.089Z,22.03
2019-03-23T08:35:57.801Z,22.53
2019-03-23T08:38:54.213Z,23.03
2019-03-23T08:41:50.832Z,21.27
2019-03-23T08:44:48.335Z,20.43
2019-03-23T08:47:45.625Z,19.80
2019-03-23T08:50:42.336Z,20.50
2019-03-23T08:53:39.819Z,22.53
2019-03-23T08:56:37.510Z,22.83
2019-03-23T08:59:34.496Z,19.77
2019-03-23T09:02:33.187Z,18.90
2019-03-23T09:05:30.314Z,17.40
2019-03-23T09:08:28.055Z,16.10
2019-03-23T09:11:24.574Z,18.77
2019-03-23T09:14:20.873Z,16.17
2019-03-23T09:17:17.156Z,15.47
2019-03-23T09:20:14.802Z,7.63
2019-03-23T09:23:10.988Z,11.33
2019-03-23T09:26:07.178Z,10.43
2019-03-23T09:29:03.636Z,5.77
2019-03-23T09:32:00.251Z,6.33
2019-03-23T09:34:57.779Z,6.77
2019-03-23T09:37:54.264Z,5.70
2019-03-23T09:40:50.637Z,5.53
2019-03-23T09:43:47.642Z,6.10
2019-03-23T09:46:44.840Z,6.83
2019-03-23T09:49:41.764Z,8.17
2019-03-23T09:52:37.919Z,9.10
2019-03-23T09:55:34.908Z,7.47
2019-03-23T09:58:31.200Z,9.47
2019-03-23T10:01:27.289Z,6.97
2019-03-23T10:04:23.940Z,9.07
2019-03-23T10:07:22.236Z,7.50
2019-03-23T10:10:22.129Z,10.40
2019-03-23T10:13:19.403Z,10.33
2019-03-23T10:16:15.868Z,7.57
2019-03-23T10:19:13.102Z,9.23
2019-03-23T10:22:10.133Z,9.97
2019-03-23T10:25:06.876Z,9.53
2019-03-23T10:28:03.774Z,9.10
2019-03-23T10:31:00.783Z,8.60
2019-03-23T10:33:57.767Z,8.43
2019-03-23T10:36:59.266Z,8.40
2019-03-23T10:39:56.469Z,8.20
2019-03-23T10:42:52.593Z,8.83
2019-03-23T10:45:48.737Z,10.73
2019-03-23T10:48:47.911Z,11.03
2019-03-23T10:51:48.645Z,9.13
2019-03-23T10:54:46.242Z,10.27
2019-03-23T10:57:42.575Z,8.97
2019-03-23T11:00:38.986Z,10.57
2019-03-23T11:03:35.450Z,12.00
2019-03-23T11:06:32.854Z,13.17
2019-03-23T11:09:30.033Z,13.97
2019-03-23T11:12:26.553Z,11.43
2019-03-23T11:15:23.775Z,11.27
2019-03-23T11:18:23.196Z,11.93
2019-03-23T11:21:19.670Z,10.70
2019-03-23T11:24:18.401Z,11.70
2019-03-23T11:27:14.383Z,10.57
2019-03-23T11:30:11.759Z,14.37
2019-03-23T11:33:07.895Z,12.00
2019-03-23T11:36:04.643Z,12.23
2019-03-23T11:39:02.326Z,9.63
2019-03-23T11:42:00.002Z,11.30
2019-03-23T11:44:58.482Z,11.40
2019-03-23T11:47:55.398Z,11.27
2019-03-23T11:50:51.937Z,12.10
2019-03-23T11:53:49.421Z,12.83
2019-03-23T11:56:46.328Z,12.07
2019-03-23T11:59:43.090Z,12.43
2019-03-23T12:02:40.259Z,12.77
2019-03-23T12:05:37.245Z,13.57
2019-03-23T12:08:33.358Z,10.57
2019-03-23T12:11:30.564Z,11.17
2019-03-23T12:14:27.312Z,12.83
2019-03-23T12:17:24.595Z,13.40
2019-03-23T12:20:21.130Z,13.17
2019-03-23T12:23:18.771Z,13.10
2019-03-23T12:26:15.753Z,14.00
2019-03-23T12:29:13.623Z,14.60
2019-03-23T12:32:10.135Z,12.40
2019-03-23T12:35:10.115Z,14.57
2019-03-23T12:38:06.689Z,12.57
2019-03-23T12:41:14.242Z,12.03
2019-03-23T12:44:03.907Z,11.20
2019-03-23T12:47:01.639Z,10.77
2019-03-23T12:49:58.064Z,12.87
2019-03-23T12:52:57.489Z,13.77
2019-03-23T12:55:53.983Z,13.00
2019-03-23T12:58:50.233Z,13.47
2019-03-23T13:01:47.307Z,13.27
2019-03-23T13:04:48.063Z,16.10
2019-03-23T13:07:44.975Z,12.87
2019-03-23T13:10:41.780Z,15.23
2019-03-23T13:13:38.142Z,16.03
2019-03-23T13:16:34.722Z,13.63
2019-03-23T13:19:34.387Z,14.90
2019-03-23T13:22:30.510Z,14.43
2019-03-23T13:25:26.871Z,14.67
2019-03-23T13:28:26.380Z,15.53
2019-03-23T13:31:23.853Z,14.03
2019-03-23T13:34:21.026Z,16.47
2019-03-23T13:37:17.161Z,18.50
2019-03-23T13:40:16.240Z,15.77
2019-03-23T13:43:13.537Z,14.77
2019-03-23T13:46:09.560Z,14.10
2019-03-23T13:49:05.806Z,14.20
2019-03-23T13:52:33.683Z,15.27
2019-03-23T13:55:34.011Z,13.73
2019-03-23T13:58:30.828Z,13.57
2019-03-23T14:01:29.877Z,15.03
2019-03-23T14:04:26.159Z,13.17
2019-03-23T14:07:23.124Z,14.30
2019-03-23T14:10:19.810Z,16.70
2019-03-23T14:13:16.062Z,15.33
2019-03-23T14:16:13.245Z,15.67
2019-03-23T14:19:11.057Z,15.57
2019-03-23T14:22:07.714Z,16.37
2019-03-23T14:25:05.218Z,15.77
2019-03-23T14:28:02.491Z,16.23
2019-03-23T14:30:58.906Z,15.53
2019-03-23T14:33:55.968Z,13.80
2019-03-23T14:36:53.430Z,15.90
2019-03-23T14:39:50.317Z,14.07
2019-03-23T14:42:47.460Z,13.47
2019-03-23T14:45:45.122Z,15.97
2019-03-23T14:48:41.277Z,22.43
2019-03-23T14:51:37.501Z,16.10
2019-03-23T14:54:33.941Z,15.43
2019-03-23T14:57:31.315Z,18.43
2019-03-23T15:00:33.564Z,21.37
2019-03-23T15:03:30.460Z,19.10
2019-03-23T15:06:27.542Z,19.33
2019-03-23T15:09:24.247Z,19.33
2019-03-23T15:12:20.532Z,19.23
2019-03-23T15:15:17.808Z,18.87
2019-03-23T15:18:15.338Z,19.40
2019-03-23T15:21:11.717Z,20.37
2019-03-23T15:24:08.437Z,18.27
2019-03-23T15:27:05.382Z,20.30
2019-03-23T15:30:02.054Z,19.90
2019-03-23T15:32:58.195Z,23.93
2019-03-23T15:35:55.311Z,21.70
2019-03-23T15:38:52.526Z,22.90
2019-03-23T15:41:49.133Z,19.63
2019-03-23T15:44:45.620Z,19.70
2019-03-23T15:47:43.063Z,20.07
2019-03-23T15:50:40.239Z,19.10
2019-03-23T15:53:36.685Z,17.20
2019-03-23T15:56:33.861Z,16.97
2019-03-23T15:59:31.058Z,21.30
2019-03-23T16:02:28.058Z,21.50
2019-03-23T16:05:25.025Z,23.30
2019-03-23T16:08:22.156Z,24.00
2019-03-23T16:11:20.858Z,24.77
2019-03-23T16:14:17.503Z,18.50
2019-03-23T16:17:14.538Z,21.73
2019-03-23T16:20:12.629Z,22.67
2019-03-23T16:23:11.354Z,22.80
2019-03-23T16:26:07.738Z,22.47
2019-03-23T16:29:04.589Z,24.90
2019-03-23T16:32:01.326Z,24.67
2019-03-23T16:34:58.118Z,26.93
2019-03-23T16:37:54.156Z,31.50
2019-03-23T16:40:50.259Z,32.43
2019-03-23T16:43:47.408Z,33.17
2019-03-23T16:46:45.252Z,33.57
2019-03-23T16:49:42.382Z,36.63
2019-03-23T16:52:39.867Z,35.60
2019-03-23T16:55:35.972Z,38.03
2019-03-23T16:58:32.894Z,45.80
2019-03-23T17:01:29.840Z,51.43
2019-03-23T17:04:26.279Z,53.90
2019-03-23T17:07:22.482Z,62.00
2019-03-23T17:10:19.651Z,61.47
2019-03-23T17:13:15.905Z,62.23
2019-03-23T17:16:14.482Z,62.17
2019-03-23T17:19:11.073Z,64.63
2019-03-23T17:22:08.050Z,66.40
2019-03-23T17:25:07.294Z,62.63
2019-03-23T17:28:03.657Z,65.23
2019-03-23T17:31:01.297Z,73.10
2019-03-23T17:33:58.814Z,70.87
2019-03-23T17:36:56.185Z,66.63
2019-03-23T17:39:53.384Z,70.27
2019-03-23T17:42:53.986Z,66.87
2019-03-23T17:45:53.806Z,70.97
2019-03-23T17:48:52.283Z,67.80
2019-03-23T17:51:51.605Z,65.30
2019-03-23T17:54:49.288Z,62.90
2019-03-23T17:57:45.872Z,64.27
2019-03-23T18:00:43.383Z,63.23
2019-03-23T18:03:40.967Z,63.13
2019-03-23T18:06:38.437Z,64.45
2019-03-23T18:09:35.637Z,64.47
2019-03-23T18:12:33.095Z,67.22
2019-03-23T18:15:29.753Z,71.05
2019-03-23T18:18:26.695Z,57.25
2019-03-23T18:21:23.359Z,61.88
2019-03-23T18:24:20.164Z,57.30
2019-03-23T18:27:17.159Z,59.40
2019-03-23T18:30:40.302Z,55.33
2019-03-23T18:33:38.024Z,58.83
2019-03-23T18:36:34.333Z,60.52
2019-03-23T18:39:30.713Z,60.30
2019-03-23T18:42:28.169Z,60.73
2019-03-23T18:45:25.178Z,59.73
2019-03-23T18:48:22.621Z,57.03
2019-03-23T18:51:20.238Z,58.05
2019-03-23T18:54:17.265Z,60.80
2019-03-23T18:57:13.612Z,56.25
2019-03-23T19:00:11.406Z,53.20
2019-03-23T19:03:08.472Z,51.90
2019-03-23T19:06:07.733Z,52.35
2019-03-23T19:09:05.664Z,52.78
2019-03-23T19:12:03.507Z,52.23
2019-03-23T19:15:02.096Z,53.75
2019-03-23T19:18:00.664Z,49.93
2019-03-23T19:20:57.548Z,50.05
2019-03-23T19:23:55.310Z,49.20
2019-03-23T19:26:52.621Z,49.60
2019-03-23T19:29:49.514Z,55.52
2019-03-23T19:32:47.367Z,50.23
2019-03-23T19:35:44.789Z,53.38
2019-03-23T19:38:42.612Z,50.65
2019-03-23T19:41:39.464Z,52.65
2019-03-23T19:44:36.269Z,53.20
2019-03-23T19:47:33.923Z,49.75
2019-03-23T19:50:31.605Z,49.53
2019-03-23T19:53:28.705Z,49.48
2019-03-23T19:56:25.349Z,50.12
2019-03-23T19:59:22.941Z,46.95
2019-03-23T20:02:19.443Z,51.33
2019-03-23T20:05:17.042Z,49.18
2019-03-23T20:08:14.611Z,48.65
2019-03-23T20:11:11.290Z,48.73
2019-03-23T20:14:08.727Z,46.45
2019-03-23T20:17:06.114Z,57.17
2019-03-23T20:20:03.965Z,50.03
2019-03-23T20:23:01.535Z,52.95
2019-03-23T20:25:58.382Z,47.65
2019-03-23T20:28:57.121Z,49.63
2019-03-23T20:31:55.030Z,50.52
2019-03-23T20:34:52.540Z,51.90
2019-03-23T20:37:49.260Z,54.48
2019-03-23T20:40:46.457Z,53.92
2019-03-23T20:43:44.005Z,52.65
2019-03-23T20:46:41.550Z,55.00
2019-03-23T20:49:39.413Z,51.18
2019-03-23T20:52:37.174Z,50.03
2019-03-23T20:55:33.545Z,50.55
2019-03-23T20:58:32.331Z,54.20
2019-03-23T21:01:28.992Z,55.65
2019-03-23T21:04:25.557Z,52.43
2019-03-23T21:07:22.207Z,56.30
2019-03-23T21:10:19.476Z,52.33
2019-03-23T21:13:18.417Z,57.00
2019-03-23T21:16:15.794Z,51.40
2019-03-23T21:19:13.334Z,51.92
2019-03-23T21:22:10.522Z,51.02
2019-03-23T21:25:08.093Z,51.80
2019-03-23T21:28:04.961Z,53.05
2019-03-23T21:31:02.106Z,50.65
2019-03-23T21:34:00.901Z,50.12
2019-03-23T21:36:58.296Z,51.75
2019-03-23T21:39:54.771Z,55.92
2019-03-23T21:42:52.638Z,53.38
2019-03-23T21:45:50.188Z,50.78
2019-03-23T21:48:46.708Z,46.50
2019-03-23T21:51:44.232Z,48.60
2019-03-23T21:54:41.587Z,51.65
2019-03-23T21:57:39.142Z,49.65
2019-03-23T22:00:38.182Z,50.92
2019-03-23T22:03:35.866Z,51.68
2019-03-23T22:06:33.415Z,48.35
2019-03-23T22:09:30.337Z,47.10
2019-03-23T22:12:29.448Z,47.67
2019-03-23T22:15:26.191Z,46.08
2019-03-23T22:18:23.839Z,46.37
2019-03-23T22:21:21.211Z,50.75
2019-03-23T22:24:18.894Z,52.38
2019-03-23T22:27:19.102Z,52.70
2019-03-23T22:30:16.922Z,54.30
2019-03-23T22:33:13.921Z,54.13
2019-03-23T22:36:11.588Z,48.02
2019-03-23T22:39:09.681Z,53.02
2019-03-23T22:42:07.061Z,53.35
2019-03-23T22:45:04.294Z,47.78
2019-03-23T22:48:02.050Z,48.52
2019-03-23T22:50:59.898Z,47.80
2019-03-23T22:53:57.389Z,50.28
2019-03-23T22:56:55.241Z,49.60
2019-03-23T22:59:52.595Z,50.40
2019-03-23T23:02:50.277Z,52.53
2019-03-23T23:05:47.668Z,49.83
2019-03-23T23:08:44.247Z,45.85
2019-03-23T23:11:41.768Z,53.20
2019-03-23T23:14:40.760Z,46.68
2019-03-23T23:17:38.175Z,46.25
2019-03-23T23:20:36.251Z,51.53
2019-03-23T23:23:33.484Z,49.63
2019-03-23T23:26:34.226Z,49.27
2019-03-23T23:29:30.730Z,45.20
2019-03-23T23:32:27.564Z,52.15
2019-03-23T23:35:24.622Z,50.05
2019-03-23T23:38:21.938Z,46.73
2019-03-23T23:41:19.190Z,51.05
2019-03-23T23:44:16.982Z,46.28
2019-03-23T23:47:13.542Z,52.30
2019-03-23T23:50:11.507Z,50.40
2019-03-23T23:53:09.089Z,52.08
2019-03-23T23:56:06.305Z,47.55
2019-03-23T23:59:03.154Z,49.83
